sensor_id;sensor_type;location;lat;lon;timestamp;pressure;altitude;pressure_sealevel;temperature
71807;BMP280;59655;42.590;23.364;2022-10-31T00:00:29;92030.06;;;13.58
71807;BMP280;59655;42.590;23.364;2022-10-31T00:02:54;92019.97;;;13.49
71807;BMP280;59655;42.590;23.364;2022-10-31T00:05:20;92028.88;;;13.44
71807;BMP280;59655;42.590;23.364;2022-10-31T00:07:46;92017.88;;;13.39
71807;BMP280;59655;42.590;23.364;2022-10-31T00:10:11;92022.84;;;13.35
71807;BMP280;59655;42.590;23.364;2022-10-31T00:12:36;92015.09;;;13.14
71807;BMP280;59655;42.590;23.364;2022-10-31T00:15:02;92005.53;;;13.11
71807;BMP280;59655;42.590;23.364;2022-10-31T00:17:27;92008.38;;;13.13
71807;BMP280;59655;42.590;23.364;2022-10-31T00:19:53;92018.13;;;13.11
71807;BMP280;59655;42.590;23.364;2022-10-31T00:22:18;92019.03;;;13.13
71807;BMP280;59655;42.590;23.364;2022-10-31T00:24:43;92019.91;;;13.16
71807;BMP280;59655;42.590;23.364;2022-10-31T00:27:09;92014.94;;;13.12
71807;BMP280;59655;42.590;23.364;2022-10-31T00:29:34;92016.75;;;12.94
71807;BMP280;59655;42.590;23.364;2022-10-31T00:32:00;92027.94;;;13.01
71807;BMP280;59655;42.590;23.364;2022-10-31T00:34:25;92030.78;;;12.87
71807;BMP280;59655;42.590;23.364;2022-10-31T00:36:52;92026.88;;;12.96
71807;BMP280;59655;42.590;23.364;2022-10-31T00:39:17;92026.00;;;12.93
71807;BMP280;59655;42.590;23.364;2022-10-31T00:41:43;92028.13;;;12.95
71807;BMP280;59655;42.590;23.364;2022-10-31T00:44:08;92017.53;;;12.72
71807;BMP280;59655;42.590;23.364;2022-10-31T00:46:33;92012.19;;;12.72
71807;BMP280;59655;42.590;23.364;2022-10-31T00:48:59;92012.88;;;12.80
71807;BMP280;59655;42.590;23.364;2022-10-31T00:51:24;92021.94;;;12.77
71807;BMP280;59655;42.590;23.364;2022-10-31T00:53:49;92013.25;;;12.69
71807;BMP280;59655;42.590;23.364;2022-10-31T00:56:15;92016.28;;;12.73
71807;BMP280;59655;42.590;23.364;2022-10-31T00:58:40;92018.56;;;12.69
71807;BMP280;59655;42.590;23.364;2022-10-31T01:01:06;92013.03;;;12.82
71807;BMP280;59655;42.590;23.364;2022-10-31T01:03:32;92012.19;;;12.72
71807;BMP280;59655;42.590;23.364;2022-10-31T01:06:06;92017.34;;;12.70
71807;BMP280;59655;42.590;23.364;2022-10-31T01:08:33;92010.97;;;12.58
71807;BMP280;59655;42.590;23.364;2022-10-31T01:11:21;92018.56;;;12.54
71807;BMP280;59655;42.590;23.364;2022-10-31T01:13:49;92017.88;;;12.61
71807;BMP280;59655;42.590;23.364;2022-10-31T01:16:16;92019.31;;;12.39
71807;BMP280;59655;42.590;23.364;2022-10-31T01:18:43;92025.19;;;12.37
71807;BMP280;59655;42.590;23.364;2022-10-31T01:21:13;92023.03;;;12.28
71807;BMP280;59655;42.590;23.364;2022-10-31T01:23:40;92009.38;;;12.39
71807;BMP280;59655;42.590;23.364;2022-10-31T01:26:10;92022.84;;;12.34
71807;BMP280;59655;42.590;23.364;2022-10-31T01:28:37;92018.41;;;12.36
71807;BMP280;59655;42.590;23.364;2022-10-31T01:31:06;92021.25;;;12.38
71807;BMP280;59655;42.590;23.364;2022-10-31T01:33:32;92020.19;;;12.49
71807;BMP280;59655;42.590;23.364;2022-10-31T01:35:59;92021.06;;;12.21
71807;BMP280;59655;42.590;23.364;2022-10-31T01:38:24;92015.38;;;12.32
71807;BMP280;59655;42.590;23.364;2022-10-31T01:40:50;92014.00;;;12.31
71807;BMP280;59655;42.590;23.364;2022-10-31T01:43:15;92018.22;;;12.34
71807;BMP280;59655;42.590;23.364;2022-10-31T01:45:48;92025.19;;;12.37
71807;BMP280;59655;42.590;23.364;2022-10-31T01:48:19;92028.53;;;12.30
71807;BMP280;59655;42.590;23.364;2022-10-31T01:50:46;92026.03;;;12.47
71807;BMP280;59655;42.590;23.364;2022-10-31T01:53:15;92025.84;;;12.53
71807;BMP280;59655;42.590;23.364;2022-10-31T01:55:44;92026.22;;;12.57
71807;BMP280;59655;42.590;23.364;2022-10-31T01:58:22;92032.63;;;12.62
71807;BMP280;59655;42.590;23.364;2022-10-31T02:00:52;92026.03;;;12.47
71807;BMP280;59655;42.590;23.364;2022-10-31T02:03:20;92028.38;;;12.51
71807;BMP280;59655;42.590;23.364;2022-10-31T02:05:46;92026.56;;;12.54
71807;BMP280;59655;42.590;23.364;2022-10-31T02:08:29;92034.53;;;12.54
71807;BMP280;59655;42.590;23.364;2022-10-31T02:11:00;92033.84;;;12.53
71807;BMP280;59655;42.590;23.364;2022-10-31T02:13:28;92035.47;;;12.56
71807;BMP280;59655;42.590;23.364;2022-10-31T02:15:55;92030.84;;;12.57
71807;BMP280;59655;42.590;23.364;2022-10-31T02:18:22;92032.97;;;12.50
71807;BMP280;59655;42.590;23.364;2022-10-31T02:36:57;92034.94;;;12.58
71807;BMP280;59655;42.590;23.364;2022-10-31T02:39:44;92040.97;;;12.58
71807;BMP280;59655;42.590;23.364;2022-10-31T02:42:30;92047.00;;;12.59
71807;BMP280;59655;42.590;23.364;2022-10-31T02:45:08;92046.81;;;12.64
71807;BMP280;59655;42.590;23.364;2022-10-31T02:47:37;92049.47;;;12.72
71807;BMP280;59655;42.590;23.364;2022-10-31T02:50:10;92056.38;;;12.75
71807;BMP280;59655;42.590;23.364;2022-10-31T02:52:37;92051.25;;;12.77
71807;BMP280;59655;42.590;23.364;2022-10-31T02:58:07;92050.69;;;12.86
71807;BMP280;59655;42.590;23.364;2022-10-31T03:00:37;92054.94;;;12.89
71807;BMP280;59655;42.590;23.364;2022-10-31T03:03:49;92050.00;;;12.86
71807;BMP280;59655;42.590;23.364;2022-10-31T03:06:25;92047.16;;;12.84
71807;BMP280;59655;42.590;23.364;2022-10-31T03:09:08;92050.34;;;12.82
71807;BMP280;59655;42.590;23.364;2022-10-31T03:12:10;92049.28;;;12.85
71807;BMP280;59655;42.590;23.364;2022-10-31T03:17:36;92048.22;;;12.81
71807;BMP280;59655;42.590;23.364;2022-10-31T03:20:06;92049.47;;;12.80
71807;BMP280;59655;42.590;23.364;2022-10-31T03:22:33;92052.13;;;12.72
71807;BMP280;59655;42.590;23.364;2022-10-31T03:25:02;92048.94;;;12.58
71807;BMP280;59655;42.590;23.364;2022-10-31T03:27:32;92052.47;;;12.53
71807;BMP280;59655;42.590;23.364;2022-10-31T03:30:02;92051.63;;;12.50
71807;BMP280;59655;42.590;23.364;2022-10-31T03:32:32;92057.81;;;12.61
71807;BMP280;59655;42.590;23.364;2022-10-31T03:35:01;92062.97;;;12.59
71807;BMP280;59655;42.590;23.364;2022-10-31T03:37:29;92056.75;;;12.64
71807;BMP280;59655;42.590;23.364;2022-10-31T03:39:58;92057.81;;;12.53
71807;BMP280;59655;42.590;23.364;2022-10-31T03:42:27;92062.59;;;12.47
71807;BMP280;59655;42.590;23.364;2022-10-31T03:45:00;92068.81;;;12.57
71807;BMP280;59655;42.590;23.364;2022-10-31T03:47:28;92071.81;;;12.54
71807;BMP280;59655;42.590;23.364;2022-10-31T03:49:53;92077.34;;;12.56
71807;BMP280;59655;42.590;23.364;2022-10-31T03:52:35;92072.03;;;12.63
71807;BMP280;59655;42.590;23.364;2022-10-31T03:55:12;92068.28;;;12.59
71807;BMP280;59655;42.590;23.364;2022-10-31T03:58:02;92076.81;;;12.57
71807;BMP280;59655;42.590;23.364;2022-10-31T04:00:30;92073.97;;;12.63
71807;BMP280;59655;42.590;23.364;2022-10-31T04:03:03;92074.13;;;12.57
71807;BMP280;59655;42.590;23.364;2022-10-31T04:05:30;92080.91;;;12.58
71807;BMP280;59655;42.590;23.364;2022-10-31T04:07:58;92079.81;;;12.69
71807;BMP280;59655;42.590;23.364;2022-10-31T04:10:26;92080.19;;;12.73
71807;BMP280;59655;42.590;23.364;2022-10-31T04:12:57;92089.03;;;12.60
71807;BMP280;59655;42.590;23.364;2022-10-31T04:15:23;92084.59;;;12.63
71807;BMP280;59655;42.590;23.364;2022-10-31T04:17:52;92082.28;;;12.67
71807;BMP280;59655;42.590;23.364;2022-10-31T04:20:35;92090.66;;;12.71
71807;BMP280;59655;42.590;23.364;2022-10-31T04:23:01;92089.75;;;12.68
71807;BMP280;59655;42.590;23.364;2022-10-31T04:25:27;92090.47;;;12.69
71807;BMP280;59655;42.590;23.364;2022-10-31T04:27:52;92097.41;;;12.64
71807;BMP280;59655;42.590;23.364;2022-10-31T04:30:18;92088.00;;;12.63
71807;BMP280;59655;42.590;23.364;2022-10-31T04:32:43;92083.91;;;12.55
71807;BMP280;59655;42.590;23.364;2022-10-31T04:35:08;92087.44;;;12.49
71807;BMP280;59655;42.590;23.364;2022-10-31T04:37:35;92091.72;;;12.45
71807;BMP280;59655;42.590;23.364;2022-10-31T04:40:01;92089.91;;;12.40
71807;BMP280;59655;42.590;23.364;2022-10-31T04:42:29;92093.66;;;12.44
71807;BMP280;59655;42.590;23.364;2022-10-31T04:44:55;92096.50;;;12.46
71807;BMP280;59655;42.590;23.364;2022-10-31T04:47:20;92103.41;;;12.42
71807;BMP280;59655;42.590;23.364;2022-10-31T04:49:45;92096.88;;;12.50
71807;BMP280;59655;42.590;23.364;2022-10-31T04:52:11;92097.19;;;12.47
71807;BMP280;59655;42.590;23.364;2022-10-31T04:54:36;92100.75;;;12.49
71807;BMP280;59655;42.590;23.364;2022-10-31T04:57:01;92106.63;;;12.56
71807;BMP280;59655;42.590;23.364;2022-10-31T04:59:27;92109.28;;;12.56
71807;BMP280;59655;42.590;23.364;2022-10-31T05:01:52;92104.34;;;12.52
71807;BMP280;59655;42.590;23.364;2022-10-31T05:04:17;92106.06;;;12.49
71807;BMP280;59655;42.590;23.364;2022-10-31T05:06:43;92106.44;;;12.46
71807;BMP280;59655;42.590;23.364;2022-10-31T05:09:08;92111.41;;;12.49
71807;BMP280;59655;42.590;23.364;2022-10-31T05:11:34;92124.53;;;12.47
71807;BMP280;59655;42.590;23.364;2022-10-31T05:13:59;92111.75;;;12.46
71807;BMP280;59655;42.590;23.364;2022-10-31T05:16:24;92118.16;;;12.50
71807;BMP280;59655;42.590;23.364;2022-10-31T05:18:50;92113.53;;;12.43
71807;BMP280;59655;42.590;23.364;2022-10-31T05:21:15;92113.00;;;12.45
71807;BMP280;59655;42.590;23.364;2022-10-31T05:23:40;92125.06;;;12.46
71807;BMP280;59655;42.590;23.364;2022-10-31T05:26:06;92119.38;;;12.49
71807;BMP280;59655;42.590;23.364;2022-10-31T05:28:31;92116.38;;;12.53
71807;BMP280;59655;42.590;23.364;2022-10-31T05:30:56;92109.28;;;12.56
71807;BMP280;59655;42.590;23.364;2022-10-31T05:33:21;92115.66;;;12.60
71807;BMP280;59655;42.590;23.364;2022-10-31T05:35:47;92127.03;;;12.61
71807;BMP280;59655;42.590;23.364;2022-10-31T05:38:13;92125.63;;;12.67
71807;BMP280;59655;42.590;23.364;2022-10-31T05:40:38;92122.81;;;12.73
71807;BMP280;59655;42.590;23.364;2022-10-31T05:43:03;92123.66;;;12.76
71807;BMP280;59655;42.590;23.364;2022-10-31T05:45:29;92129.69;;;12.76
71807;BMP280;59655;42.590;23.364;2022-10-31T05:47:59;92129.19;;;12.78
71807;BMP280;59655;42.590;23.364;2022-10-31T05:50:27;92136.28;;;12.75
71807;BMP280;59655;42.590;23.364;2022-10-31T05:52:57;92134.31;;;12.76
71807;BMP280;59655;42.590;23.364;2022-10-31T05:55:23;92138.94;;;12.75
71807;BMP280;59655;42.590;23.364;2022-10-31T05:57:49;92138.94;;;12.75
71807;BMP280;59655;42.590;23.364;2022-10-31T06:00:15;92148.53;;;12.70
71807;BMP280;59655;42.590;23.364;2022-10-31T06:02:40;92141.25;;;12.71
71807;BMP280;59655;42.590;23.364;2022-10-31T06:05:06;92150.13;;;12.73
71807;BMP280;59655;42.590;23.364;2022-10-31T06:07:35;92152.63;;;12.71
71807;BMP280;59655;42.590;23.364;2022-10-31T06:10:01;92157.41;;;12.65
71807;BMP280;59655;42.590;23.364;2022-10-31T06:12:27;92157.75;;;12.69
71807;BMP280;59655;42.590;23.364;2022-10-31T06:14:52;92157.75;;;12.69
71807;BMP280;59655;42.590;23.364;2022-10-31T06:17:17;92156.84;;;12.75
71807;BMP280;59655;42.590;23.364;2022-10-31T06:19:43;92156.16;;;12.74
71807;BMP280;59655;42.590;23.364;2022-10-31T06:22:08;92169.84;;;12.78
71807;BMP280;59655;42.590;23.364;2022-10-31T06:24:36;92169.13;;;12.78
71807;BMP280;59655;42.590;23.364;2022-10-31T06:27:01;92175.16;;;12.78
71807;BMP280;59655;42.590;23.364;2022-10-31T06:29:26;92179.97;;;12.80
71807;BMP280;59655;42.590;23.364;2022-10-31T06:31:52;92184.59;;;12.79
71807;BMP280;59655;42.590;23.364;2022-10-31T06:34:17;92172.13;;;12.82
71807;BMP280;59655;42.590;23.364;2022-10-31T06:36:42;92178.72;;;12.81
71807;BMP280;59655;42.590;23.364;2022-10-31T06:39:08;92186.34;;;12.84
71807;BMP280;59655;42.590;23.364;2022-10-31T06:41:33;92183.69;;;12.84
71807;BMP280;59655;42.590;23.364;2022-10-31T06:44:18;92181.94;;;12.87
71807;BMP280;59655;42.590;23.364;2022-10-31T06:46:46;92187.41;;;12.89
71807;BMP280;59655;42.590;23.364;2022-10-31T06:49:12;92190.28;;;12.91
71807;BMP280;59655;42.590;23.364;2022-10-31T06:51:38;92190.63;;;12.95
71807;BMP280;59655;42.590;23.364;2022-10-31T06:54:03;92195.59;;;12.99
71807;BMP280;59655;42.590;23.364;2022-10-31T06:56:28;92190.63;;;13.03
71807;BMP280;59655;42.590;23.364;2022-10-31T06:58:54;92178.00;;;13.03
71807;BMP280;59655;42.590;23.364;2022-10-31T07:01:19;92182.09;;;13.04
71807;BMP280;59655;42.590;23.364;2022-10-31T07:03:44;92183.69;;;13.07
71807;BMP280;59655;42.590;23.364;2022-10-31T07:06:10;92186.00;;;13.11
71807;BMP280;59655;42.590;23.364;2022-10-31T07:08:35;92187.44;;;13.20
71807;BMP280;59655;42.590;23.364;2022-10-31T07:11:01;92185.81;;;13.16
71807;BMP280;59655;42.590;23.364;2022-10-31T07:13:26;92183.88;;;13.17
71807;BMP280;59655;42.590;23.364;2022-10-31T07:15:59;92184.03;;;13.19
71807;BMP280;59655;42.590;23.364;2022-10-31T07:18:25;92180.84;;;13.21
71807;BMP280;59655;42.590;23.364;2022-10-31T07:20:51;92178.34;;;13.30
71807;BMP280;59655;42.590;23.364;2022-10-31T07:23:17;92181.00;;;13.30
71807;BMP280;59655;42.590;23.364;2022-10-31T07:25:42;92177.97;;;13.34
71807;BMP280;59655;42.590;23.364;2022-10-31T07:28:08;92168.59;;;13.33
71807;BMP280;59655;42.590;23.364;2022-10-31T07:30:34;92169.97;;;13.34
71807;BMP280;59655;42.590;23.364;2022-10-31T07:32:59;92171.25;;;13.33
71807;BMP280;59655;42.590;23.364;2022-10-31T07:35:27;92169.31;;;13.33
71807;BMP280;59655;42.590;23.364;2022-10-31T07:37:53;92162.34;;;13.38
71807;BMP280;59655;42.590;23.364;2022-10-31T07:40:20;92164.31;;;13.45
71807;BMP280;59655;42.590;23.364;2022-10-31T07:42:49;92168.56;;;13.48
71807;BMP280;59655;42.590;23.364;2022-10-31T07:45:17;92176.75;;;13.50
71807;BMP280;59655;42.590;23.364;2022-10-31T07:47:44;92179.75;;;13.54
71807;BMP280;59655;42.590;23.364;2022-10-31T07:50:13;92180.81;;;13.59
71807;BMP280;59655;42.590;23.364;2022-10-31T07:52:38;92180.09;;;13.58
71807;BMP280;59655;42.590;23.364;2022-10-31T07:55:05;92188.25;;;13.60
71807;BMP280;59655;42.590;23.364;2022-10-31T07:57:30;92180.09;;;13.58
71807;BMP280;59655;42.590;23.364;2022-10-31T07:59:56;92182.75;;;13.58
71807;BMP280;59655;42.590;23.364;2022-10-31T08:02:21;92185.06;;;13.62
71807;BMP280;59655;42.590;23.364;2022-10-31T08:04:47;92184.53;;;13.64
71807;BMP280;59655;42.590;23.364;2022-10-31T08:07:13;92184.34;;;13.69
71807;BMP280;59655;42.590;23.364;2022-10-31T08:09:38;92191.78;;;13.71
71807;BMP280;59655;42.590;23.364;2022-10-31T08:12:04;92180.22;;;13.76
71807;BMP280;59655;42.590;23.364;2022-10-31T08:14:29;92182.72;;;13.74
71807;BMP280;59655;42.590;23.364;2022-10-31T08:16:55;92181.31;;;13.73
71807;BMP280;59655;42.590;23.364;2022-10-31T08:19:20;92180.94;;;13.76
71807;BMP280;59655;42.590;23.364;2022-10-31T08:21:45;92182.00;;;13.81
71807;BMP280;59655;42.590;23.364;2022-10-31T08:24:11;92180.53;;;13.88
71807;BMP280;59655;42.590;23.364;2022-10-31T08:26:36;92188.91;;;13.92
71807;BMP280;59655;42.590;23.364;2022-10-31T08:29:02;92182.16;;;13.91
71807;BMP280;59655;42.590;23.364;2022-10-31T08:31:28;92193.69;;;13.93
71807;BMP280;59655;42.590;23.364;2022-10-31T08:33:53;92195.63;;;14.00
71807;BMP280;59655;42.590;23.364;2022-10-31T08:36:20;92191.31;;;14.05
71807;BMP280;59655;42.590;23.364;2022-10-31T08:38:49;92186.88;;;14.07
71807;BMP280;59655;42.590;23.364;2022-10-31T08:41:14;92183.28;;;14.13
71807;BMP280;59655;42.590;23.364;2022-10-31T08:43:40;92188.28;;;14.16
71807;BMP280;59655;42.590;23.364;2022-10-31T08:46:05;92192.19;;;14.15
71807;BMP280;59655;42.590;23.364;2022-10-31T08:48:31;92185.75;;;14.18
71807;BMP280;59655;42.590;23.364;2022-10-31T08:50:58;92194.13;;;14.22
71807;BMP280;59655;42.590;23.364;2022-10-31T08:53:24;92195.69;;;14.25
71807;BMP280;59655;42.590;23.364;2022-10-31T08:55:50;92197.44;;;14.31
71807;BMP280;59655;42.590;23.364;2022-10-31T08:58:18;92196.38;;;14.34
71807;BMP280;59655;42.590;23.364;2022-10-31T09:00:45;92199.53;;;14.40
71807;BMP280;59655;42.590;23.364;2022-10-31T09:03:16;92199.31;;;14.53
71807;BMP280;59655;42.590;23.364;2022-10-31T09:05:42;92203.56;;;14.56
71807;BMP280;59655;42.590;23.364;2022-10-31T09:08:08;92195.94;;;14.53
71807;BMP280;59655;42.590;23.364;2022-10-31T09:10:35;92193.09;;;14.50
71807;BMP280;59655;42.590;23.364;2022-10-31T09:13:10;92196.63;;;14.53
71807;BMP280;59655;42.590;23.364;2022-10-31T09:15:38;92195.50;;;14.64
71807;BMP280;59655;42.590;23.364;2022-10-31T09:18:05;92195.16;;;14.60
71807;BMP280;59655;42.590;23.364;2022-10-31T09:20:31;92198.38;;;14.58
71807;BMP280;59655;42.590;23.364;2022-10-31T09:23:05;92197.97;;;14.69
71807;BMP280;59655;42.590;23.364;2022-10-31T09:25:32;92200.00;;;14.79
71807;BMP280;59655;42.590;23.364;2022-10-31T09:27:58;92197.84;;;14.85
71807;BMP280;59655;42.590;23.364;2022-10-31T09:30:25;92197.13;;;14.84
71807;BMP280;59655;42.590;23.364;2022-10-31T09:33:01;92203.09;;;15.00
71807;BMP280;59655;42.590;23.364;2022-10-31T09:35:27;92199.22;;;15.18
71807;BMP280;59655;42.590;23.364;2022-10-31T09:37:57;92201.44;;;15.30
71807;BMP280;59655;42.590;23.364;2022-10-31T09:51:04;92190.03;;;15.47
71807;BMP280;59655;42.590;23.364;2022-10-31T09:53:43;92189.31;;;15.46
71807;BMP280;59655;42.590;23.364;2022-10-31T09:56:13;92202.75;;;15.56
71807;BMP280;59655;42.590;23.364;2022-10-31T09:58:45;92194.84;;;15.66
71807;BMP280;59655;42.590;23.364;2022-10-31T10:01:23;92191.84;;;15.61
71807;BMP280;59655;42.590;23.364;2022-10-31T10:03:55;92183.56;;;15.84
71807;BMP280;59655;42.590;23.364;2022-10-31T10:06:28;92190.66;;;15.90
71807;BMP280;59655;42.590;23.364;2022-10-31T10:08:55;92184.59;;;15.89
71807;BMP280;59655;42.590;23.364;2022-10-31T10:19:48;92181.44;;;16.00
71807;BMP280;59655;42.590;23.364;2022-10-31T10:32:43;92170.75;;;16.27
71807;BMP280;59655;42.590;23.364;2022-10-31T10:40:59;92160.63;;;16.36
71807;BMP280;59655;42.590;23.364;2022-10-31T10:43:38;92154.88;;;16.39
71807;BMP280;59655;42.590;23.364;2022-10-31T10:57:01;92152.97;;;16.59
71807;BMP280;59655;42.590;23.364;2022-10-31T10:59:28;92156.72;;;16.83
71807;BMP280;59655;42.590;23.364;2022-10-31T11:01:55;92158.25;;;16.76
71807;BMP280;59655;42.590;23.364;2022-10-31T11:04:35;92148.91;;;16.68
71807;BMP280;59655;42.590;23.364;2022-10-31T11:07:05;92149.56;;;16.59
71807;BMP280;59655;42.590;23.364;2022-10-31T11:09:32;92149.75;;;16.70
71807;BMP280;59655;42.590;23.364;2022-10-31T11:11:58;92147.88;;;16.63
71807;BMP280;59655;42.590;23.364;2022-10-31T11:14:26;92145.38;;;16.75
71807;BMP280;59655;42.590;23.364;2022-10-31T11:17:09;92137.69;;;16.89
71807;BMP280;59655;42.590;23.364;2022-10-31T11:19:34;92138.94;;;16.88
71807;BMP280;59655;42.590;23.364;2022-10-31T11:22:12;92139.22;;;16.92
71807;BMP280;59655;42.590;23.364;2022-10-31T11:24:40;92137.00;;;17.08
71807;BMP280;59655;42.590;23.364;2022-10-31T11:27:20;92138.44;;;17.28
71807;BMP280;59655;42.590;23.364;2022-10-31T11:29:45;92128.38;;;17.09
71807;BMP280;59655;42.590;23.364;2022-10-31T11:32:29;92135.31;;;17.41
71807;BMP280;59655;42.590;23.364;2022-10-31T11:34:58;92116.69;;;17.43
71807;BMP280;59655;42.590;23.364;2022-10-31T11:37:29;92116.97;;;17.57
71807;BMP280;59655;42.590;23.364;2022-10-31T11:39:58;92112.75;;;17.64
71807;BMP280;59655;42.590;23.364;2022-10-31T11:42:34;92111.16;;;17.51
71807;BMP280;59655;42.590;23.364;2022-10-31T11:45:06;92118.81;;;17.45
71807;BMP280;59655;42.590;23.364;2022-10-31T11:47:33;92117.97;;;17.62
71807;BMP280;59655;42.590;23.364;2022-10-31T11:50:02;92107.84;;;17.91
71807;BMP280;59655;42.590;23.364;2022-10-31T11:52:30;92111.41;;;17.84
71807;BMP280;59655;42.590;23.364;2022-10-31T11:57:45;92110.56;;;17.91
71807;BMP280;59655;42.590;23.364;2022-10-31T12:05:39;92108.09;;;18.05
71807;BMP280;59655;42.590;23.364;2022-10-31T12:08:09;92102.03;;;18.05
71807;BMP280;59655;42.590;23.364;2022-10-31T12:13:39;92098.56;;;18.24
71807;BMP280;59655;42.590;23.364;2022-10-31T12:16:12;92110.84;;;18.27
71807;BMP280;59655;42.590;23.364;2022-10-31T12:18:51;92110.28;;;18.28
71807;BMP280;59655;42.590;23.364;2022-10-31T12:38:11;92111.28;;;18.64
71807;BMP280;59655;42.590;23.364;2022-10-31T12:40:47;92095.63;;;18.51
71807;BMP280;59655;42.590;23.364;2022-10-31T12:43:45;92108.97;;;18.70
71807;BMP280;59655;42.590;23.364;2022-10-31T12:49:20;92109.94;;;18.75
71807;BMP280;59655;42.590;23.364;2022-10-31T12:57:38;92107.13;;;18.94
71807;BMP280;59655;42.590;23.364;2022-10-31T13:00:19;92110.91;;;18.79
71807;BMP280;59655;42.590;23.364;2022-10-31T13:05:30;92110.03;;;18.55
71807;BMP280;59655;42.590;23.364;2022-10-31T13:08:10;92110.16;;;18.57
71807;BMP280;59655;42.590;23.364;2022-10-31T13:10:39;92115.56;;;18.48
71807;BMP280;59655;42.590;23.364;2022-10-31T13:13:17;92110.78;;;18.46
71807;BMP280;59655;42.590;23.364;2022-10-31T13:15:58;92120.38;;;18.49
71807;BMP280;59655;42.590;23.364;2022-10-31T13:18:32;92121.13;;;18.40
71807;BMP280;59655;42.590;23.364;2022-10-31T13:21:03;92120.47;;;18.30
71807;BMP280;59655;42.590;23.364;2022-10-31T13:23:33;92115.78;;;18.30
71807;BMP280;59655;42.590;23.364;2022-10-31T13:26:03;92117.53;;;18.26
71807;BMP280;59655;42.590;23.364;2022-10-31T13:28:36;92115.00;;;18.18
71807;BMP280;59655;42.590;23.364;2022-10-31T13:31:02;92121.50;;;18.15
71807;BMP280;59655;42.590;23.364;2022-10-31T13:33:34;92116.72;;;18.13
71807;BMP280;59655;42.590;23.364;2022-10-31T13:38:54;92123.81;;;18.09
71807;BMP280;59655;42.590;23.364;2022-10-31T13:44:19;92126.91;;;18.05
71807;BMP280;59655;42.590;23.364;2022-10-31T13:46:46;92124.66;;;18.02
71807;BMP280;59655;42.590;23.364;2022-10-31T13:57:21;92121.44;;;18.65
71807;BMP280;59655;42.590;23.364;2022-10-31T13:59:52;92121.09;;;18.71
71807;BMP280;59655;42.590;23.364;2022-10-31T14:02:33;92125.47;;;18.76
71807;BMP280;59655;42.590;23.364;2022-10-31T14:07:48;92121.59;;;18.89
71807;BMP280;59655;42.590;23.364;2022-10-31T14:10:29;92125.94;;;18.94
71807;BMP280;59655;42.590;23.364;2022-10-31T14:13:26;92130.19;;;18.97
71807;BMP280;59655;42.590;23.364;2022-10-31T14:16:03;92120.56;;;18.94
71807;BMP280;59655;42.590;23.364;2022-10-31T14:18:41;92127.16;;;18.81
71807;BMP280;59655;42.590;23.364;2022-10-31T14:23:54;92129.50;;;18.65
71807;BMP280;59655;42.590;23.364;2022-10-31T14:28:46;92126.72;;;18.54
71807;BMP280;59655;42.590;23.364;2022-10-31T14:31:31;92122.56;;;18.41
71807;BMP280;59655;42.590;23.364;2022-10-31T14:34:23;92122.00;;;18.33
71807;BMP280;59655;42.590;23.364;2022-10-31T14:37:13;92122.16;;;18.25
71807;BMP280;59655;42.590;23.364;2022-10-31T14:40:02;92121.50;;;18.15
71807;BMP280;59655;42.590;23.364;2022-10-31T14:48:23;92117.63;;;17.87
71807;BMP280;59655;42.590;23.364;2022-10-31T14:50:51;92118.09;;;17.74
71807;BMP280;59655;42.590;23.364;2022-10-31T14:53:22;92119.06;;;17.68
71807;BMP280;59655;42.590;23.364;2022-10-31T14:55:51;92120.34;;;17.58
71807;BMP280;59655;42.590;23.364;2022-10-31T14:58:21;92125.84;;;17.50
71807;BMP280;59655;42.590;23.364;2022-10-31T15:00:48;92129.97;;;17.41
71807;BMP280;59655;42.590;23.364;2022-10-31T15:03:38;92120.34;;;17.38
71807;BMP280;59655;42.590;23.364;2022-10-31T15:06:12;92129.97;;;17.32
71807;BMP280;59655;42.590;23.364;2022-10-31T15:08:45;92123.44;;;17.25
71807;BMP280;59655;42.590;23.364;2022-10-31T15:11:23;92134.31;;;17.17
71807;BMP280;59655;42.590;23.364;2022-10-31T15:13:57;92132.22;;;17.16
71807;BMP280;59655;42.590;23.364;2022-10-31T15:16:42;92129.97;;;17.12
71807;BMP280;59655;42.590;23.364;2022-10-31T15:19:11;92131.91;;;17.02
71807;BMP280;59655;42.590;23.364;2022-10-31T15:21:45;92138.09;;;16.95
71807;BMP280;59655;42.590;23.364;2022-10-31T15:24:12;92139.94;;;16.92
71807;BMP280;59655;42.590;23.364;2022-10-31T15:26:44;92136.28;;;16.88
71807;BMP280;59655;42.590;23.364;2022-10-31T15:29:21;92136.25;;;16.78
71807;BMP280;59655;42.590;23.364;2022-10-31T15:31:54;92145.38;;;16.75
71807;BMP280;59655;42.590;23.364;2022-10-31T15:36:55;92148.63;;;16.64
71807;BMP280;59655;42.590;23.364;2022-10-31T15:39:21;92152.41;;;16.61
71807;BMP280;59655;42.590;23.364;2022-10-31T15:41:52;92149.19;;;16.62
71807;BMP280;59655;42.590;23.364;2022-10-31T15:44:34;92150.69;;;16.55
71807;BMP280;59655;42.590;23.364;2022-10-31T15:47:06;92157.16;;;16.52
71807;BMP280;59655;42.590;23.364;2022-10-31T15:49:39;92154.19;;;16.48
71807;BMP280;59655;42.590;23.364;2022-10-31T15:54:47;92149.50;;;16.39
71807;BMP280;59655;42.590;23.364;2022-10-31T15:57:13;92151.75;;;16.33
71807;BMP280;59655;42.590;23.364;2022-10-31T15:59:41;92150.25;;;16.22
71807;BMP280;59655;42.590;23.364;2022-10-31T16:02:12;92158.72;;;16.19
71807;BMP280;59655;42.590;23.364;2022-10-31T16:04:52;92163.34;;;16.18
71807;BMP280;59655;42.590;23.364;2022-10-31T16:07:19;92167.50;;;16.29
71807;BMP280;59655;42.590;23.364;2022-10-31T16:10:01;92169.97;;;16.17
71807;BMP280;59655;42.590;23.364;2022-10-31T16:12:35;92156.81;;;16.12
71807;BMP280;59655;42.590;23.364;2022-10-31T16:15:14;92173.47;;;16.10
71807;BMP280;59655;42.590;23.364;2022-10-31T16:17:41;92171.19;;;16.06
71807;BMP280;59655;42.590;23.364;2022-10-31T16:20:07;92176.53;;;16.06
71807;BMP280;59655;42.590;23.364;2022-10-31T16:22:36;92167.81;;;16.06
71807;BMP280;59655;42.590;23.364;2022-10-31T16:25:18;92182.84;;;16.01
71807;BMP280;59655;42.590;23.364;2022-10-31T16:27:54;92174.19;;;15.93
71807;BMP280;59655;42.590;23.364;2022-10-31T16:30:38;92180.81;;;15.92